Time;durP1;ratioP1;P1;durP2;ratioP2;P2;SDS_P1;SDS_P2;PMS_P1;PMS_P2;Temp;Humidity;BMP_temperature;BMP_pressure;BME280_temperature;BME280_humidity;BME280_pressure;Samples;Min_cycle;Max_cycle;Signal;HPM_P1;HPM_P2
2023/06/10 00:01:25;;;;;;;15.40;6.70;;;;;;;15.89;82.77;100537.16;109663;1241;73957;-71
2023/06/10 00:03:54;;;;;;;12.40;6.60;;;;;;;15.84;84.11;100546.26;109595;1245;62450;-68
2023/06/10 00:06:24;;;;;;;13.20;6.60;;;;;;;15.73;85.27;100542.27;109681;1242;60133;-70
2023/06/10 00:08:53;;;;;;;14.00;7.00;;;;;;;15.63;86.00;100543.48;109679;1244;74178;-71
2023/06/10 00:11:22;;;;;;;10.40;6.70;;;;;;;15.64;86.89;100542.37;109527;1244;57718;-71
2023/06/10 00:13:51;;;;;;;14.80;7.70;;;;;;;15.64;87.05;100543.74;109363;1241;57181;-72
2023/06/10 00:16:19;;;;;;;15.70;6.80;;;;;;;15.66;86.95;100543.62;109434;1241;73455;-70
2023/06/10 00:18:51;;;;;;;10.40;7.30;;;;;;;15.65;86.12;100541.63;109533;1242;71675;-69
2023/06/10 00:21:20;;;;;;;12.70;7.10;;;;;;;15.56;86.40;100550.10;109481;1241;70952;-70
2023/06/10 00:23:49;;;;;;;11.00;6.40;;;;;;;15.34;88.60;100548.17;109544;1241;73567;-69
2023/06/10 00:26:18;;;;;;;13.60;7.00;;;;;;;15.30;89.64;100547.17;109534;1244;57730;-69
2023/06/10 00:28:47;;;;;;;13.20;7.10;;;;;;;15.30;90.13;100546.02;109702;1241;62024;-69
2023/06/10 00:31:17;;;;;;;11.50;6.90;;;;;;;15.30;90.31;100550.38;109554;1241;73938;-70
2023/06/10 00:33:46;;;;;;;13.90;7.20;;;;;;;15.28;90.36;100549.45;109617;1244;61249;-69
2023/06/10 00:36:15;;;;;;;14.90;7.40;;;;;;;15.27;90.23;100546.27;109622;1241;69753;-69
2023/06/10 00:38:43;;;;;;;12.30;7.20;;;;;;;15.25;90.11;100545.05;109596;1241;74213;-69
2023/06/10 00:41:12;;;;;;;10.50;7.30;;;;;;;15.21;90.72;100541.73;109515;1244;62529;-69
2023/06/10 00:43:41;;;;;;;12.10;8.00;;;;;;;15.17;90.50;100543.13;109512;1244;57199;-69
2023/06/10 00:46:11;;;;;;;20.60;7.70;;;;;;;15.14;90.43;100543.43;109491;1245;63627;-70
2023/06/10 00:48:43;;;;;;;9.70;7.00;;;;;;;15.07;92.36;100543.02;109338;1241;72139;-70
2023/06/10 00:51:12;;;;;;;17.20;7.60;;;;;;;15.09;92.85;100540.25;109350;1247;60874;-69
2023/06/10 00:53:41;;;;;;;12.00;7.50;;;;;;;15.12;92.68;100541.84;109417;1245;63426;-70
2023/06/10 00:56:10;;;;;;;14.00;7.70;;;;;;;15.17;92.65;100541.98;109496;1243;62718;-69
2023/06/10 00:58:39;;;;;;;12.60;7.30;;;;;;;15.21;92.63;100546.50;109308;1241;61659;-69
2023/06/10 01:01:10;;;;;;;18.20;8.10;;;;;;;15.30;90.63;100541.73;109411;1244;62854;-69
2023/06/10 01:03:40;;;;;;;16.20;8.70;;;;;;;15.41;88.85;100543.73;109427;1241;72803;-69
2023/06/10 01:06:33;;;;;;;14.40;9.00;;;;;;;15.41;88.35;100535.77;109299;1244;69218;-69
2023/06/10 01:09:37;;;;;;;18.00;9.20;;;;;;;15.39;88.21;100536.14;109389;1241;74556;-69
2023/06/10 01:12:33;;;;;;;14.50;7.70;;;;;;;15.30;90.12;100539.50;109322;1244;60968;-70
2023/06/10 01:15:03;;;;;;;10.60;7.60;;;;;;;15.25;91.37;100542.59;109458;1241;57212;-69
2023/06/10 01:17:32;;;;;;;14.70;8.20;;;;;;;15.25;91.66;100543.13;109553;1241;73441;-69
2023/06/10 01:20:03;;;;;;;15.60;7.50;;;;;;;15.29;91.47;100543.45;109436;1245;73964;-70
2023/06/10 01:22:36;;;;;;;12.10;7.80;;;;;;;15.35;91.19;100544.38;109565;1244;60460;-70
2023/06/10 01:25:07;;;;;;;13.50;8.60;;;;;;;15.40;90.67;100546.24;109461;1244;73050;-70
2023/06/10 01:27:39;;;;;;;14.10;8.90;;;;;;;15.50;88.71;100551.09;109442;1245;57130;-70
2023/06/10 01:30:22;;;;;;;21.50;9.40;;;;;;;15.44;88.02;100556.23;109343;1247;61213;-70
2023/06/10 01:32:52;;;;;;;16.40;8.10;;;;;;;15.32;88.39;100553.50;109327;1247;74467;-70
2023/06/10 01:35:26;;;;;;;15.90;9.80;;;;;;;15.25;88.28;100554.52;109345;1241;71645;-70
2023/06/10 01:37:58;;;;;;;16.20;8.20;;;;;;;15.16;90.52;100553.44;109552;1241;70981;-70
2023/06/10 01:40:28;;;;;;;20.20;9.20;;;;;;;15.18;91.26;100558.39;109530;1241;62952;-70
2023/06/10 01:42:57;;;;;;;16.90;9.00;;;;;;;15.22;90.80;100560.80;109463;1245;57687;-71
2023/06/10 01:45:26;;;;;;;16.10;9.50;;;;;;;15.29;89.17;100560.14;109322;1247;57442;-71
2023/06/10 01:47:55;;;;;;;14.40;8.30;;;;;;;15.29;90.26;100562.35;109454;1241;62708;-70
2023/06/10 01:50:24;;;;;;;15.80;8.00;;;;;;;15.30;90.70;100561.53;109495;1241;70938;-70
2023/06/10 01:52:53;;;;;;;17.30;8.50;;;;;;;15.31;91.11;100563.28;109563;1241;71728;-70
2023/06/10 01:55:21;;;;;;;14.20;8.50;;;;;;;15.34;90.31;100562.65;109314;1241;74255;-70
2023/06/10 01:57:51;;;;;;;15.30;8.20;;;;;;;15.32;91.14;100562.45;109305;1246;57152;-70
2023/06/10 02:00:21;;;;;;;11.40;8.00;;;;;;;15.26;91.36;100560.76;109348;1245;60453;-70
2023/06/10 02:02:50;;;;;;;13.40;8.10;;;;;;;15.18;91.54;100556.24;109464;1245;74044;-69
2023/06/10 02:05:19;;;;;;;12.70;8.10;;;;;;;15.08;91.17;100560.10;109681;1241;71929;-69
2023/06/10 02:07:49;;;;;;;16.00;8.20;;;;;;;15.01;91.22;100559.94;109627;1241;60340;-69
2023/06/10 02:10:19;;;;;;;14.20;8.20;;;;;;;14.91;93.51;100561.56;109703;1241;63176;-69
2023/06/10 02:12:47;;;;;;;15.30;8.40;;;;;;;14.84;94.80;100564.14;109676;1242;62012;-69
2023/06/10 02:15:16;;;;;;;17.10;8.10;;;;;;;14.80;95.35;100562.75;109480;1241;61741;-69
2023/06/10 02:17:49;;;;;;;15.20;8.10;;;;;;;14.78;95.86;100564.86;109592;1241;74085;-69
2023/06/10 02:20:17;;;;;;;15.60;9.20;;;;;;;14.84;93.99;100565.34;109605;1244;72646;-69
2023/06/10 02:22:46;;;;;;;17.40;9.80;;;;;;;14.82;93.17;100567.29;109684;1241;70243;-70
2023/06/10 02:25:15;;;;;;;15.10;8.20;;;;;;;14.70;94.85;100567.92;109406;1241;64451;-70
2023/06/10 02:27:44;;;;;;;20.20;10.30;;;;;;;14.65;95.57;100565.52;109655;1241;57816;-69
2023/06/10 02:30:13;;;;;;;18.10;10.00;;;;;;;14.71;93.54;100566.76;109484;1241;57708;-70
2023/06/10 02:32:42;;;;;;;22.20;9.90;;;;;;;14.70;93.27;100566.48;109600;1242;62261;-69
2023/06/10 02:35:12;;;;;;;22.10;10.70;;;;;;;14.66;93.54;100571.21;109576;1241;61660;-68
2023/06/10 02:37:41;;;;;;;22.90;10.40;;;;;;;14.59;93.74;100574.67;109470;1241;60148;-68
2023/06/10 02:40:11;;;;;;;17.90;10.50;;;;;;;14.63;93.86;100574.16;109475;1241;63316;-69
2023/06/10 02:42:40;;;;;;;18.60;10.00;;;;;;;14.70;93.31;100579.05;109454;1244;57727;-67
2023/06/10 02:45:09;;;;;;;17.50;10.40;;;;;;;14.70;93.10;100580.11;109477;1241;57749;-71
2023/06/10 02:47:41;;;;;;;14.70;7.90;;;;;;;14.67;95.08;100584.83;109527;1241;62963;-70
2023/06/10 02:50:11;;;;;;;12.90;8.50;;;;;;;14.69;95.94;100585.89;109338;1241;72280;-69
2023/06/10 02:52:53;;;;;;;14.80;8.40;;;;;;;14.74;95.81;100587.50;109448;1241;70871;-69
2023/06/10 02:55:26;;;;;;;13.10;8.80;;;;;;;14.77;95.95;100590.02;109460;1241;64355;-69
2023/06/10 02:58:00;;;;;;;15.10;9.10;;;;;;;14.80;95.87;100591.27;109503;1241;62110;-69
2023/06/10 03:00:29;;;;;;;15.90;8.40;;;;;;;14.84;95.97;100589.73;109597;1241;57194;-69
2023/06/10 03:03:00;;;;;;;26.10;9.90;;;;;;;14.96;94.14;100585.14;109707;1241;63224;-71
2023/06/10 03:05:32;;;;;;;19.00;10.40;;;;;;;15.02;92.74;100590.66;109691;1241;72056;-71
2023/06/10 03:08:03;;;;;;;16.30;9.70;;;;;;;15.08;92.39;100591.70;109666;1241;69959;-70
2023/06/10 03:10:32;;;;;;;17.90;9.50;;;;;;;15.08;92.18;100592.43;109755;1241;63579;-71
2023/06/10 03:13:02;;;;;;;19.20;10.20;;;;;;;15.06;92.15;100589.73;109734;1242;57724;-70
2023/06/10 03:15:32;;;;;;;18.10;11.10;;;;;;;15.05;92.09;100587.95;109745;1244;57802;-70
2023/06/10 03:18:02;;;;;;;22.80;10.60;;;;;;;15.04;91.84;100589.30;109772;1240;63468;-70
2023/06/10 03:20:31;;;;;;;19.20;10.00;;;;;;;15.07;92.57;100588.33;109743;1244;60823;-69
2023/06/10 03:23:00;;;;;;;14.60;9.30;;;;;;;15.17;93.15;100589.27;109756;1241;69729;-69
2023/06/10 03:25:30;;;;;;;21.80;10.20;;;;;;;15.27;93.24;100590.77;109772;1242;74943;-70
2023/06/10 03:27:59;;;;;;;19.90;9.40;;;;;;;15.32;92.71;100591.18;109797;1242;57578;-70
2023/06/10 03:30:32;;;;;;;18.20;10.20;;;;;;;15.39;92.54;100591.79;109751;1241;57155;-71
2023/06/10 03:33:01;;;;;;;19.20;9.50;;;;;;;15.50;91.87;100593.58;109697;1241;62976;-69
2023/06/10 03:35:32;;;;;;;17.70;9.80;;;;;;;15.60;90.95;100588.42;109588;1241;60963;-69
2023/06/10 03:38:02;;;;;;;20.80;10.40;;;;;;;15.76;90.12;100592.70;109663;1241;60650;-69
2023/06/10 03:40:32;;;;;;;19.40;10.00;;;;;;;15.80;89.65;100596.14;109497;1241;73049;-70
2023/06/10 03:43:01;;;;;;;17.70;10.10;;;;;;;15.89;89.19;100598.27;109649;1241;62469;-69
2023/06/10 03:45:30;;;;;;;19.30;9.70;;;;;;;15.94;88.75;100597.95;109658;1241;61757;-70
2023/06/10 03:47:59;;;;;;;19.60;9.60;;;;;;;15.97;88.47;100595.44;109510;1241;73969;-70
2023/06/10 03:50:32;;;;;;;19.70;10.30;;;;;;;16.09;87.70;100592.44;109460;1241;61229;-70
2023/06/10 03:53:01;;;;;;;23.00;10.20;;;;;;;16.08;87.45;100593.61;109915;1239;59984;-70
2023/06/10 03:55:30;;;;;;;17.10;10.30;;;;;;;16.04;87.46;100593.64;109881;1240;63228;-70
2023/06/10 03:58:00;;;;;;;19.70;10.20;;;;;;;16.02;87.58;100594.05;109933;1239;57761;-70
2023/06/10 04:00:29;;;;;;;14.80;10.10;;;;;;;15.90;88.37;100594.46;109966;1239;60409;-70
2023/06/10 04:02:58;;;;;;;16.70;10.30;;;;;;;15.97;88.15;100590.94;110052;1240;62040;-70
2023/06/10 04:05:31;;;;;;;22.40;10.20;;;;;;;16.10;87.65;100591.63;109797;1239;61686;-70
2023/06/10 04:08:01;;;;;;;19.80;9.80;;;;;;;16.12;87.93;100592.30;110068;1238;59156;-70
2023/06/10 04:10:30;;;;;;;22.00;11.10;;;;;;;16.24;87.34;100593.42;110091;1238;73410;-69
2023/06/10 04:12:59;;;;;;;17.80;10.10;;;;;;;16.27;86.67;100590.54;109954;1239;62092;-69
2023/06/10 04:15:33;;;;;;;20.80;10.60;;;;;;;16.43;85.83;100586.60;109869;1242;57266;-69
2023/06/10 04:18:05;;;;;;;17.30;9.70;;;;;;;16.51;85.36;100586.79;109985;1238;62187;-70
2023/06/10 04:20:35;;;;;;;17.90;9.80;;;;;;;16.54;85.38;100597.89;109862;1238;60865;-69
2023/06/10 04:23:04;;;;;;;19.70;10.00;;;;;;;16.44;86.53;100600.78;110096;1238;59963;-70
2023/06/10 04:25:34;;;;;;;26.40;11.90;;;;;;;16.45;86.19;100602.46;110072;1238;73566;-70
2023/06/10 04:28:02;;;;;;;28.30;17.30;;;;;;;16.69;85.11;100605.15;109838;1238;63237;-70
2023/06/10 04:30:32;;;;;;;19.10;10.20;;;;;;;16.79;84.43;100609.63;110079;1238;57416;-69
2023/06/10 04:33:01;;;;;;;24.70;10.30;;;;;;;16.83;84.19;100609.63;110021;1239;62796;-69
2023/06/10 04:35:30;;;;;;;16.00;9.70;;;;;;;16.98;83.32;100601.95;110135;1239;62286;-69
2023/06/10 04:37:59;;;;;;;15.30;8.70;;;;;;;17.10;82.38;100603.17;109982;1240;70499;-70
2023/06/10 04:40:28;;;;;;;12.80;9.10;;;;;;;17.23;81.51;100605.92;110033;1239;64077;-71
2023/06/10 04:42:57;;;;;;;15.30;9.20;;;;;;;17.31;80.76;100607.23;109916;1238;61965;-71
2023/06/10 04:45:26;;;;;;;18.10;8.40;;;;;;;17.41;80.70;100606.92;110142;1238;57716;-71
2023/06/10 04:47:57;;;;;;;15.20;8.00;;;;;;;17.63;79.11;100601.58;110015;1238;62187;-71
2023/06/10 04:50:27;;;;;;;16.30;9.90;;;;;;;17.58;79.26;100601.19;110058;1239;60915;-71
2023/06/10 04:52:58;;;;;;;14.60;7.70;;;;;;;17.75;79.03;100602.89;110146;1240;59211;-71
2023/06/10 04:55:28;;;;;;;15.30;8.40;;;;;;;17.87;77.76;100607.55;110027;1238;73755;-71
2023/06/10 04:57:57;;;;;;;12.80;7.30;;;;;;;18.02;76.36;100608.63;110057;1239;61988;-71
2023/06/10 05:00:26;;;;;;;15.00;7.50;;;;;;;18.26;74.82;100608.77;110100;1238;61004;-70
2023/06/10 05:02:55;;;;;;;13.00;6.90;;;;;;;18.38;73.08;100601.36;110098;1238;72905;-71
2023/06/10 05:05:25;;;;;;;15.10;7.50;;;;;;;18.38;72.18;100594.94;110093;1238;70403;-71
2023/06/10 05:07:53;;;;;;;19.20;8.30;;;;;;;18.35;72.68;100593.89;110091;1238;70918;-70
2023/06/10 05:10:22;;;;;;;10.00;7.10;;;;;;;18.27;73.52;100593.64;109999;1240;74148;-71
2023/06/10 05:12:51;;;;;;;11.60;6.80;;;;;;;18.36;73.41;100597.15;110009;1239;57216;-71
2023/06/10 05:15:20;;;;;;;14.30;7.60;;;;;;;18.41;72.88;100600.07;109787;1244;57590;-71
2023/06/10 05:17:49;;;;;;;15.70;8.20;;;;;;;18.36;73.40;100606.98;110011;1240;73622;-70
2023/06/10 05:20:18;;;;;;;21.60;8.00;;;;;;;18.45;72.97;100605.79;109964;1238;61326;-69
2023/06/10 05:22:47;;;;;;;15.30;8.10;;;;;;;18.53;72.77;100608.31;109910;1241;59947;-70
2023/06/10 05:25:16;;;;;;;13.70;6.50;;;;;;;18.74;71.43;100605.17;109882;1239;73859;-71
2023/06/10 05:27:45;;;;;;;16.80;6.80;;;;;;;18.86;70.79;100603.53;110064;1238;57318;-66
2023/06/10 05:30:14;;;;;;;11.20;7.20;;;;;;;18.94;71.00;100603.85;110036;1238;60618;-68
2023/06/10 05:32:42;;;;;;;17.00;7.90;;;;;;;18.95;70.72;100603.98;109818;1238;72441;-68
2023/06/10 05:35:11;;;;;;;14.80;7.70;;;;;;;19.17;70.29;100605.02;110069;1238;72746;-68
2023/06/10 05:37:40;;;;;;;11.70;7.20;;;;;;;19.36;69.66;100604.88;109966;1238;60331;-67
2023/06/10 05:40:10;;;;;;;12.80;7.20;;;;;;;19.39;69.67;100609.34;109903;1242;64196;-66
2023/06/10 05:42:39;;;;;;;12.10;7.20;;;;;;;19.50;69.69;100609.30;109875;1238;60575;-67
2023/06/10 05:45:10;;;;;;;14.50;7.30;;;;;;;19.62;69.65;100609.07;109794;1242;57330;-69
2023/06/10 05:47:41;;;;;;;16.10;7.90;;;;;;;19.90;68.84;100609.25;109576;1240;63863;-72
2023/06/10 05:50:10;;;;;;;15.30;7.70;;;;;;;20.20;68.24;100610.77;110015;1238;71308;-67
2023/06/10 05:52:41;;;;;;;14.20;7.60;;;;;;;20.20;67.48;100605.86;109964;1238;61613;-68
2023/06/10 05:55:10;;;;;;;10.60;7.70;;;;;;;20.47;67.14;100603.11;109764;1242;62866;-67
2023/06/10 05:57:42;;;;;;;13.30;7.40;;;;;;;20.60;66.51;100601.02;109874;1238;60513;-71
2023/06/10 06:00:13;;;;;;;14.20;7.90;;;;;;;20.68;66.25;100603.86;109906;1238;57090;-68
2023/06/10 06:02:43;;;;;;;15.20;8.30;;;;;;;20.65;65.81;100606.68;109601;1239;73603;-70
2023/06/10 07:47:13;;;;;;;11.40;5.90;;;;;;;24.81;49.91;100546.29;104475;1280;599197;-71
2023/06/10 07:49:42;;;;;;;10.50;5.80;;;;;;;24.99;49.19;100543.30;106504;1256;58944;-69
2023/06/10 07:52:11;;;;;;;11.60;5.80;;;;;;;25.16;48.67;100548.26;106287;1264;57478;-71
2023/06/10 07:54:40;;;;;;;14.40;5.50;;;;;;;25.31;47.93;100547.95;106232;1268;62293;-73
2023/06/10 07:57:09;;;;;;;13.90;5.40;;;;;;;25.45;46.28;100544.49;106673;1253;71823;-73
2023/06/10 07:59:38;;;;;;;9.70;5.50;;;;;;;25.54;45.29;100543.83;106786;1248;61857;-69
2023/06/10 08:02:07;;;;;;;9.40;5.40;;;;;;;25.65;45.42;100541.73;106697;1248;63252;-69
2023/06/10 08:04:37;;;;;;;14.90;5.10;;;;;;;25.87;45.15;100537.77;106981;1247;61739;-69
2023/06/10 08:07:06;;;;;;;9.30;5.50;;;;;;;26.00;43.85;100536.23;107095;1244;58915;-73
2023/06/10 08:09:35;;;;;;;13.40;5.70;;;;;;;26.05;43.06;100537.80;107243;1244;63391;-71
2023/06/10 08:12:06;;;;;;;9.00;4.40;;;;;;;26.21;42.47;100534.56;107278;1245;61821;-72
2023/06/10 08:14:36;;;;;;;;;;;;;;;26.44;42.29;100535.38;107098;1245;70422;-70
2023/06/10 08:17:06;;;;;;;12.40;4.70;;;;;;;26.50;41.50;100533.82;107188;1245;74177;-71
2023/06/10 08:19:35;;;;;;;8.80;4.90;;;;;;;26.58;41.14;100532.51;107348;1245;59012;-73
2023/06/10 08:22:05;;;;;;;9.20;5.30;;;;;;;26.77;40.71;100532.09;107096;1251;59087;-71
2023/06/10 08:24:33;;;;;;;12.60;5.40;;;;;;;26.93;41.07;100528.16;107093;1251;64019;-71
2023/06/10 08:27:03;;;;;;;8.70;4.30;;;;;;;27.08;41.27;100522.31;107223;1245;72069;-71
2023/06/10 08:29:33;;;;;;;8.10;4.10;;;;;;;27.21;40.58;100522.32;107219;1248;60856;-72
2023/06/10 08:32:03;;;;;;;8.60;4.50;;;;;;;27.25;39.65;100521.53;107014;1251;62230;-71
2023/06/10 08:34:35;;;;;;;11.10;4.00;;;;;;;27.35;39.39;100517.89;107164;1247;59053;-71
2023/06/10 08:37:05;;;;;;;10.00;4.50;;;;;;;27.46;38.87;100514.48;107154;1245;59114;-70
2023/06/10 08:39:34;;;;;;;5.50;4.20;;;;;;;27.58;38.02;100507.35;107066;1248;63026;-70
2023/06/10 08:42:21;;;;;;;12.50;5.60;;;;;;;27.51;37.91;100505.98;107165;1248;61158;-72
2023/06/10 08:44:55;;;;;;;10.80;4.60;;;;;;;27.53;37.36;100505.45;107076;1248;59335;-71
2023/06/10 08:47:27;;;;;;;5.90;4.50;;;;;;;27.62;37.61;100501.23;106945;1252;62965;-72
2023/06/10 08:50:01;;;;;;;6.90;4.50;;;;;;;27.88;37.53;100501.89;106960;1246;61248;-73
2023/06/10 08:52:37;;;;;;;9.60;4.10;;;;;;;28.10;36.79;100502.68;106795;1250;58303;-71
2023/06/10 08:55:27;;;;;;;8.70;3.90;;;;;;;28.16;36.17;100503.17;106920;1248;61383;-67
2023/06/10 08:58:01;;;;;;;7.40;4.50;;;;;;;28.19;36.03;100503.79;106971;1248;61503;-68
2023/06/10 09:00:32;;;;;;;9.80;4.20;;;;;;;28.20;36.45;100501.23;107022;1244;70355;-68
2023/06/10 09:03:03;;;;;;;12.10;4.70;;;;;;;28.23;37.10;100499.58;107069;1248;73206;-68
2023/06/10 09:05:37;;;;;;;9.80;4.60;;;;;;;28.18;36.04;100496.89;106868;1244;61823;-66
2023/06/10 09:08:07;;;;;;;10.20;4.50;;;;;;;28.43;35.93;100493.98;106945;1247;60807;-68
2023/06/10 09:10:36;;;;;;;9.70;4.30;;;;;;;28.56;35.62;100494.84;106872;1251;62707;-70
2023/06/10 09:13:06;;;;;;;9.60;4.50;;;;;;;28.57;35.22;100489.76;106834;1251;72529;-66
2023/06/10 09:15:35;;;;;;;7.60;4.20;;;;;;;28.27;35.33;100489.15;106965;1245;69875;-68
2023/06/10 09:18:05;;;;;;;8.90;3.70;;;;;;;28.63;35.67;100486.45;107073;1248;62613;-71
2023/06/10 09:20:34;;;;;;;9.10;3.40;;;;;;;28.84;33.42;100485.58;106948;1251;59135;-72
2023/06/10 09:23:04;;;;;;;7.00;3.40;;;;;;;29.12;32.94;100482.25;106927;1251;60180;-69
2023/06/10 09:25:38;;;;;;;6.80;3.50;;;;;;;29.23;32.50;100482.20;109265;1243;62973;-69
2023/06/10 09:28:15;;;;;;;7.30;3.70;;;;;;;29.41;32.04;100480.45;109223;1244;63223;-70
2023/06/10 09:30:44;;;;;;;5.30;3.20;;;;;;;29.23;31.72;100477.85;109495;1244;58899;-69
2023/06/10 09:33:15;;;;;;;7.40;3.20;;;;;;;29.21;31.78;100475.50;109549;1244;63187;-68
2023/06/10 09:35:49;;;;;;;12.80;3.60;;;;;;;29.52;31.86;100474.73;109472;1247;57589;-68
2023/06/10 09:38:22;;;;;;;8.70;3.80;;;;;;;29.41;31.08;100467.91;109584;1243;57664;-69
2023/06/10 09:40:54;;;;;;;8.70;3.00;;;;;;;29.64;30.65;100463.34;109453;1244;72984;-69
2023/06/10 09:43:42;;;;;;;7.40;3.50;;;;;;;29.90;30.73;100460.84;109438;1244;62007;-69
2023/06/10 09:46:18;;;;;;;6.20;3.40;;;;;;;29.72;30.57;100463.09;109735;1241;59970;-67
2023/06/10 09:48:48;;;;;;;9.60;3.60;;;;;;;29.56;30.54;100461.25;109644;1241;73508;-68
2023/06/10 09:51:17;;;;;;;8.80;3.00;;;;;;;29.90;30.22;100458.52;109442;1247;57701;-67
2023/06/10 09:53:52;;;;;;;6.30;3.20;;;;;;;29.80;29.91;100456.25;109528;1241;60500;-69
2023/06/10 09:56:23;;;;;;;7.20;3.50;;;;;;;30.12;29.74;100458.23;109423;1243;73130;-69
2023/06/10 09:58:53;;;;;;;11.50;3.20;;;;;;;29.83;29.89;100455.33;109361;1244;73568;-69
2023/06/10 10:01:22;;;;;;;8.50;3.10;;;;;;;29.44;30.67;100455.16;109392;1243;60526;-69
2023/06/10 10:03:51;;;;;;;5.10;3.40;;;;;;;29.79;30.39;100453.16;109501;1242;63258;-69
2023/06/10 10:06:20;;;;;;;6.50;3.20;;;;;;;29.90;30.46;100451.44;109424;1247;57684;-69
2023/06/10 10:08:51;;;;;;;7.60;3.10;;;;;;;30.11;30.25;100447.70;109553;1243;58135;-69
2023/06/10 10:11:25;;;;;;;10.70;3.80;;;;;;;29.97;30.56;100449.41;109509;1242;62103;-67
2023/06/10 10:13:54;;;;;;;6.80;3.30;;;;;;;30.16;30.17;100449.61;109566;1243;72194;-68
2023/06/10 10:16:35;;;;;;;8.10;3.50;;;;;;;29.91;30.19;100450.77;109683;1242;61687;-68
2023/06/10 10:19:12;;;;;;;7.40;3.30;;;;;;;30.06;30.62;100446.33;109448;1243;65004;-69
2023/06/10 10:22:01;;;;;;;7.80;3.70;;;;;;;30.40;30.24;100445.45;109552;1245;61211;-67
2023/06/10 10:24:38;;;;;;;12.40;3.60;;;;;;;30.45;30.77;100445.14;109467;1244;57013;-67
2023/06/10 10:27:17;;;;;;;7.90;3.60;;;;;;;30.47;30.86;100443.23;109479;1241;61477;-68
2023/06/10 10:29:53;;;;;;;5.80;3.50;;;;;;;30.38;30.82;100444.73;109478;1243;72208;-70
2023/06/10 10:32:40;;;;;;;9.80;3.70;;;;;;;30.84;29.94;100438.62;109568;1244;70938;-68
2023/06/10 10:35:21;;;;;;;10.00;3.70;;;;;;;31.36;29.16;100435.42;109446;1246;62819;-69
2023/06/10 10:37:54;;;;;;;6.90;2.90;;;;;;;31.73;28.43;100434.98;109562;1245;56950;-68
2023/06/10 10:40:25;;;;;;;4.80;3.00;;;;;;;32.41;28.03;100433.26;109488;1247;57710;-68
2023/06/10 10:43:30;;;;;;;7.00;3.10;;;;;;;32.55;27.39;100429.08;104849;1279;601502;-72
2023/06/10 10:46:08;;;;;;;5.30;2.50;;;;;;;32.75;27.65;100435.13;106392;1260;58119;-68
2023/06/10 10:48:40;;;;;;;8.30;3.30;;;;;;;32.84;27.26;100429.16;107086;1252;59108;-69
2023/06/10 10:51:11;;;;;;;7.10;3.30;;;;;;;32.65;27.50;100430.23;107299;1251;71870;-69
2023/06/10 10:53:40;;;;;;;9.30;3.60;;;;;;;32.51;27.31;100432.36;107234;1252;73793;-68
2023/06/10 10:56:20;;;;;;;8.60;3.30;;;;;;;32.73;27.27;100430.23;107030;1248;241894;-69
2023/06/10 10:59:06;;;;;;;5.80;3.00;;;;;;;32.25;27.29;100425.06;107385;1246;62466;-68
2023/06/10 11:02:53;;;;;;;8.30;3.30;;;;;;;32.60;27.39;100423.27;104499;1286;600107;-70
2023/06/10 11:05:49;;;;;;;6.60;3.10;;;;;;;32.90;26.83;100420.80;109649;1247;60990;-69
2023/06/10 11:08:31;;;;;;;8.20;3.80;;;;;;;33.24;26.36;100424.96;109310;1247;61693;-69
2023/06/10 11:11:00;;;;;;;6.20;3.10;;;;;;;33.06;26.79;100423.30;109512;1243;62357;-70
2023/06/10 11:13:29;;;;;;;6.40;3.30;;;;;;;33.04;26.07;100416.64;109586;1244;63888;-69
2023/06/10 11:15:58;;;;;;;5.80;3.20;;;;;;;33.06;26.19;100421.85;109410;1241;325793;-71
2023/06/10 11:18:53;;;;;;;6.60;3.20;;;;;;;32.93;25.97;100420.27;109530;1244;66103;-71
2023/06/10 11:21:28;;;;;;;7.70;3.40;;;;;;;32.72;26.08;100417.69;109732;1241;57058;-73
2023/06/10 11:23:58;;;;;;;7.20;3.20;;;;;;;32.82;26.57;100416.77;109678;1241;60002;-72
2023/06/10 11:26:37;;;;;;;12.10;3.60;;;;;;;32.78;26.56;100411.82;109617;1241;61709;-73
2023/06/10 11:29:08;;;;;;;9.50;3.50;;;;;;;32.74;26.85;100409.27;109604;1241;63080;-73
2023/06/10 11:31:48;;;;;;;6.00;3.40;;;;;;;33.22;26.58;100407.10;109477;1241;60104;-73
2023/06/10 11:34:24;;;;;;;5.40;3.30;;;;;;;33.71;25.67;100401.67;109492;1241;72940;-73
2023/06/10 11:36:53;;;;;;;6.40;3.40;;;;;;;34.11;25.52;100402.15;109481;1246;57145;-72
2023/06/10 11:39:24;;;;;;;6.10;3.10;;;;;;;33.50;25.64;100398.39;109714;1241;57594;-71
2023/06/10 11:41:53;;;;;;;9.60;3.50;;;;;;;33.91;24.32;100387.08;109644;1241;62236;-72
2023/06/10 11:44:28;;;;;;;7.70;3.00;;;;;;;34.38;23.68;100387.08;109713;1241;60877;-72
2023/06/10 11:46:57;;;;;;;10.20;3.40;;;;;;;33.89;24.58;100383.66;109513;1241;59994;-72
2023/06/10 11:49:26;;;;;;;7.60;3.10;;;;;;;33.60;25.19;100380.95;109617;1241;64199;-72
2023/06/10 11:51:56;;;;;;;7.00;3.10;;;;;;;34.07;23.76;100376.81;109728;1241;57642;-72
2023/06/10 11:54:25;;;;;;;7.70;3.40;;;;;;;33.70;23.71;100366.16;109722;1241;57673;-71
2023/06/10 11:56:59;;;;;;;7.30;3.50;;;;;;;33.15;25.12;100364.85;109720;1241;73388;-71
2023/06/10 11:59:28;;;;;;;4.70;2.90;;;;;;;33.53;25.53;100365.67;109669;1241;72596;-70
2023/06/10 12:01:57;;;;;;;6.30;3.20;;;;;;;34.60;23.78;100367.06;109623;1241;60401;-72
2023/06/10 12:04:26;;;;;;;5.50;3.10;;;;;;;34.87;23.05;100370.75;109766;1241;72787;-71
2023/06/10 12:06:55;;;;;;;5.70;3.00;;;;;;;34.40;23.18;100367.81;109691;1243;60839;-72
2023/06/10 12:09:30;;;;;;;7.00;3.10;;;;;;;33.51;24.24;100373.90;109529;1242;57232;-74
2023/06/10 12:12:05;;;;;;;6.40;3.10;;;;;;;32.92;24.88;100369.09;109646;1241;72730;-73
2023/06/10 12:15:10;;;;;;;8.70;3.10;;;;;;;33.78;23.94;100367.78;109662;1241;71840;-73
2023/06/10 12:17:40;;;;;;;6.90;3.00;;;;;;;34.30;23.14;100360.45;109391;1248;62491;-73
2023/06/10 12:20:26;;;;;;;5.10;3.00;;;;;;;33.99;23.51;100350.14;109633;1241;74271;-74
2023/06/10 12:22:55;;;;;;;5.70;2.70;;;;;;;34.06;22.99;100350.61;109593;1241;57728;-71
2023/06/10 12:25:29;;;;;;;5.10;2.70;;;;;;;33.76;23.12;100344.36;109604;1241;57648;-76
2023/06/10 12:27:58;;;;;;;8.80;3.40;;;;;;;32.93;24.00;100351.98;109611;1241;62028;-81
2023/06/10 12:30:27;;;;;;;5.50;3.10;;;;;;;31.93;25.25;100354.17;109386;1243;62203;-75
2023/06/10 12:32:57;;;;;;;5.50;2.90;;;;;;;31.29;26.36;100352.30;109498;1241;59819;-75
2023/06/10 12:35:27;;;;;;;7.50;2.80;;;;;;;31.71;26.00;100350.83;109552;1245;64334;-71
2023/06/10 12:38:06;;;;;;;7.30;2.90;;;;;;;32.19;25.56;100350.46;109368;1246;57608;-73
2023/06/10 12:40:40;;;;;;;4.90;3.00;;;;;;;32.56;24.74;100346.69;109579;1241;57718;-72
2023/06/10 12:43:09;;;;;;;5.50;3.10;;;;;;;33.22;23.98;100343.92;109429;1241;62678;-73
2023/06/10 12:45:40;;;;;;;7.20;2.80;;;;;;;33.93;23.12;100336.10;109573;1241;61789;-71
2023/06/10 12:48:09;;;;;;;5.20;2.80;;;;;;;34.82;22.14;100337.94;109531;1241;70494;-73
2023/06/10 12:50:41;;;;;;;7.30;3.10;;;;;;;34.98;21.76;100327.81;109651;1241;73420;-73
2023/06/10 12:53:11;;;;;;;8.30;2.80;;;;;;;35.37;20.93;100325.90;109431;1241;61432;-72
2023/06/10 12:55:40;;;;;;;5.10;2.80;;;;;;;35.88;20.52;100318.63;109631;1244;57163;-72
2023/06/10 12:58:09;;;;;;;7.80;2.70;;;;;;;36.71;20.14;100317.08;109409;1241;62937;-71
2023/06/10 13:00:38;;;;;;;6.10;3.10;;;;;;;37.13;19.46;100311.59;109659;1241;60897;-74
2023/06/10 13:03:09;;;;;;;6.00;2.90;;;;;;;37.55;19.41;100306.13;109730;1241;69685;-72
2023/06/10 13:05:38;;;;;;;7.60;2.60;;;;;;;37.37;19.05;100300.90;109646;1241;74745;-71
2023/06/10 13:08:11;;;;;;;7.10;3.30;;;;;;;35.87;20.73;100309.66;109734;1241;61770;-71
2023/06/10 13:10:40;;;;;;;8.50;3.20;;;;;;;34.23;22.47;100312.98;109688;1241;57227;-70
2023/06/10 13:13:09;;;;;;;5.30;3.10;;;;;;;33.86;23.29;100314.17;109663;1241;62173;-72
2023/06/10 13:15:38;;;;;;;6.90;4.30;;;;;;;33.50;23.51;100311.41;109754;1241;71957;-72